createdAt,value
2024-05-09T00:00:36.121Z,12.37
2024-05-09T00:03:06.433Z,12.30
2024-05-09T00:05:33.462Z,12.45
2024-05-09T00:08:00.530Z,12.51
2024-05-09T00:10:36.039Z,12.55
2024-05-09T00:13:05.528Z,12.58
2024-05-09T00:15:32.447Z,12.36
2024-05-09T00:17:59.473Z,12.45
2024-05-09T00:20:35.055Z,12.42
2024-05-09T00:23:05.394Z,12.42
2024-05-09T00:25:35.470Z,12.28
2024-05-09T00:28:02.514Z,12.28
2024-05-09T00:30:34.433Z,12.22
2024-05-09T00:33:04.633Z,12.20
2024-05-09T00:35:32.404Z,12.17
2024-05-09T00:37:59.651Z,12.17
2024-05-09T00:40:35.608Z,12.18
2024-05-09T00:43:09.162Z,12.10
2024-05-09T00:45:36.144Z,12.08
2024-05-09T00:48:04.086Z,11.77
2024-05-09T00:50:36.383Z,11.83
2024-05-09T00:53:05.137Z,11.74
2024-05-09T00:55:32.077Z,11.57
2024-05-09T00:57:58.963Z,11.46
2024-05-09T01:00:35.951Z,11.28
2024-05-09T01:03:06.860Z,11.12
2024-05-09T01:05:34.098Z,11.27
2024-05-09T01:08:01.158Z,11.06
2024-05-09T01:10:33.869Z,11.01
2024-05-09T01:13:02.897Z,11.25
2024-05-09T01:15:32.638Z,11.14
2024-05-09T01:17:59.746Z,11.10
2024-05-09T01:20:37.148Z,11.29
2024-05-09T01:23:11.978Z,11.41
2024-05-09T01:25:39.368Z,11.17
2024-05-09T01:28:06.567Z,11.12
2024-05-09T01:30:35.955Z,10.93
2024-05-09T01:33:05.699Z,10.98
2024-05-09T01:35:33.984Z,11.18
2024-05-09T01:38:01.014Z,11.32
2024-05-09T01:40:37.233Z,11.13
2024-05-09T01:43:06.978Z,11.12
2024-05-09T01:45:33.972Z,11.13
2024-05-09T01:48:01.457Z,11.20
2024-05-09T01:50:37.957Z,11.31
2024-05-09T01:53:08.336Z,11.39
2024-05-09T01:55:37.896Z,11.53
2024-05-09T01:58:04.929Z,11.50
2024-05-09T02:00:38.809Z,11.58
2024-05-09T02:03:09.258Z,11.41
2024-05-09T02:05:36.571Z,11.58
2024-05-09T02:08:04.109Z,11.58
2024-05-09T02:10:32.980Z,11.56
2024-05-09T02:13:03.140Z,11.45
2024-05-09T02:15:30.022Z,11.52
2024-05-09T02:17:57.044Z,11.71
2024-05-09T02:20:33.085Z,11.74
2024-05-09T02:23:03.139Z,11.76
2024-05-09T02:25:30.057Z,11.88
2024-05-09T02:27:56.994Z,11.89
2024-05-09T02:30:36.180Z,11.88
2024-05-09T02:33:08.087Z,11.69
2024-05-09T02:35:35.685Z,11.74
2024-05-09T02:38:02.721Z,11.51
2024-05-09T02:40:36.549Z,11.70
2024-05-09T02:43:05.847Z,11.68
2024-05-09T02:45:35.420Z,11.84
2024-05-09T02:48:02.738Z,11.74
2024-05-09T02:50:37.024Z,11.65
2024-05-09T02:53:06.448Z,11.73
2024-05-09T02:55:33.921Z,11.80
2024-05-09T02:58:00.788Z,11.70
2024-05-09T03:00:36.637Z,11.67
2024-05-09T03:03:11.770Z,11.64
2024-05-09T03:05:41.604Z,11.77
2024-05-09T03:08:08.789Z,11.84
2024-05-09T03:10:38.103Z,11.67
2024-05-09T03:13:06.836Z,11.63
2024-05-09T03:15:33.812Z,11.63
2024-05-09T03:18:01.338Z,11.66
2024-05-09T03:20:34.698Z,11.67
2024-05-09T03:23:03.187Z,11.71
2024-05-09T03:25:30.221Z,11.73
2024-05-09T03:27:57.163Z,11.82
2024-05-09T03:30:31.156Z,11.87
2024-05-09T03:33:09.841Z,11.93
2024-05-09T03:35:39.548Z,11.97
2024-05-09T03:38:06.371Z,12.01
2024-05-09T03:40:33.312Z,11.99
2024-05-09T03:43:00.140Z,12.00
2024-05-09T03:45:26.984Z,11.91
2024-05-09T03:47:54.056Z,12.00
2024-05-09T03:50:26.432Z,12.04
2024-05-09T03:53:03.008Z,12.06
2024-05-09T03:55:29.913Z,12.03
2024-05-09T03:57:56.799Z,11.98
2024-05-09T04:00:31.174Z,11.98
2024-05-09T04:03:06.224Z,11.95
2024-05-09T04:05:38.167Z,11.89
2024-05-09T04:08:08.103Z,11.83
2024-05-09T04:10:35.575Z,11.74
2024-05-09T04:13:03.182Z,11.69
2024-05-09T04:15:30.493Z,11.71
2024-05-09T04:17:57.513Z,11.74
2024-05-09T04:20:34.275Z,11.62
2024-05-09T04:23:11.047Z,11.62
2024-05-09T04:25:38.131Z,11.60
2024-05-09T04:28:05.556Z,11.63
2024-05-09T04:30:38.138Z,11.68
2024-05-09T04:33:09.435Z,11.74
2024-05-09T04:35:38.541Z,11.76
2024-05-09T04:38:08.267Z,11.73
2024-05-09T04:40:36.962Z,11.77
2024-05-09T04:43:04.920Z,11.81
2024-05-09T04:45:31.888Z,11.87
2024-05-09T04:47:59.064Z,11.92
2024-05-09T04:50:35.252Z,11.87
2024-05-09T04:53:05.641Z,11.92
2024-05-09T04:55:38.366Z,11.88
2024-05-09T04:58:07.842Z,11.86
2024-05-09T05:00:37.302Z,11.97
2024-05-09T05:03:07.434Z,12.01
2024-05-09T05:05:37.327Z,12.06
2024-05-09T05:08:04.814Z,11.99
2024-05-09T05:10:36.083Z,11.87
2024-05-09T05:13:06.824Z,11.99
2024-05-09T05:15:33.759Z,11.96
2024-05-09T05:18:00.865Z,11.99
2024-05-09T05:20:33.256Z,12.16
2024-05-09T05:23:01.224Z,12.14
2024-05-09T05:25:28.138Z,12.14
2024-05-09T05:27:54.980Z,12.19
2024-05-09T05:30:29.115Z,11.92
2024-05-09T05:33:01.294Z,12.06
2024-05-09T05:35:28.561Z,11.90
2024-05-09T05:37:55.626Z,11.88
2024-05-09T05:40:32.002Z,11.81
2024-05-09T05:43:02.767Z,11.62
2024-05-09T05:45:32.213Z,11.83
2024-05-09T05:47:59.341Z,11.81
2024-05-09T05:50:32.570Z,11.72
2024-05-09T05:53:03.321Z,11.70
2024-05-09T05:55:30.346Z,11.29
2024-05-09T05:57:57.266Z,11.76
2024-05-09T06:00:30.071Z,11.76
2024-05-09T06:03:07.225Z,12.01
2024-05-09T06:05:34.178Z,12.00
2024-05-09T06:08:01.168Z,11.60
2024-05-09T06:10:37.247Z,11.41
2024-05-09T06:13:06.810Z,11.57
2024-05-09T06:15:33.669Z,11.41
2024-05-09T06:18:00.784Z,11.77
2024-05-09T06:20:35.949Z,11.44
2024-05-09T06:23:05.342Z,11.93
2024-05-09T06:25:32.432Z,11.93
2024-05-09T06:28:00.085Z,11.89
2024-05-09T06:30:36.533Z,11.96
2024-05-09T06:33:06.700Z,11.95
2024-05-09T06:35:36.677Z,11.66
2024-05-09T06:38:04.098Z,11.83
2024-05-09T06:40:37.292Z,11.83
2024-05-09T06:43:10.218Z,11.88
2024-05-09T06:45:37.251Z,11.77
2024-05-09T06:48:05.128Z,11.60
2024-05-09T06:50:38.269Z,11.87
2024-05-09T06:53:06.621Z,11.95
2024-05-09T06:55:33.550Z,11.60
2024-05-09T06:58:00.438Z,11.83
2024-05-09T07:00:35.243Z,11.85
2024-05-09T07:03:07.965Z,11.65
2024-05-09T07:05:37.700Z,11.69
2024-05-09T07:08:05.795Z,11.58
2024-05-09T07:10:35.496Z,11.76
2024-05-09T07:13:03.393Z,11.61
2024-05-09T07:15:30.852Z,11.90
2024-05-09T07:17:57.919Z,11.74
2024-05-09T07:20:32.478Z,11.47
2024-05-09T07:23:05.139Z,11.52
2024-05-09T07:25:32.300Z,11.55
2024-05-09T07:27:59.420Z,11.74
2024-05-09T07:30:33.121Z,12.11
2024-05-09T07:33:02.548Z,12.20
2024-05-09T07:35:30.396Z,11.90
2024-05-09T07:37:57.636Z,12.19
2024-05-09T07:40:34.842Z,12.07
2024-05-09T07:43:03.797Z,12.26
2024-05-09T07:45:47.747Z,12.39
2024-05-09T07:53:38.406Z,12.94
2024-05-09T07:56:09.992Z,12.86
2024-05-09T07:58:37.382Z,12.83
2024-05-09T08:01:04.767Z,13.07
2024-05-09T08:03:34.235Z,13.07
2024-05-09T08:06:01.293Z,13.40
2024-05-09T08:08:28.116Z,13.60
2024-05-09T08:10:55.055Z,13.69
2024-05-09T08:13:24.605Z,13.78
2024-05-09T08:15:51.637Z,13.75
2024-05-09T08:18:19.820Z,13.95
2024-05-09T08:20:48.119Z,13.99
2024-05-09T08:23:14.979Z,14.35
2024-05-09T08:25:41.819Z,14.32
2024-05-09T08:28:08.786Z,14.53
2024-05-09T08:30:38.650Z,14.60
2024-05-09T08:33:06.923Z,14.20
2024-05-09T08:35:34.864Z,14.27
2024-05-09T08:38:02.363Z,14.26
2024-05-09T08:40:34.472Z,14.53
2024-05-09T08:43:03.500Z,14.74
2024-05-09T08:45:33.378Z,14.61
2024-05-09T08:48:03.257Z,14.49
2024-05-09T08:50:37.706Z,14.57
2024-05-09T08:53:06.217Z,14.74
2024-05-09T08:55:33.017Z,14.65
2024-05-09T08:57:59.922Z,14.47
2024-05-09T09:00:35.572Z,14.81
2024-05-09T09:03:07.002Z,14.78
2024-05-09T09:05:34.261Z,14.79
2024-05-09T09:08:01.957Z,15.02
2024-05-09T09:10:31.829Z,15.03
2024-05-09T09:13:01.517Z,14.98
2024-05-09T09:15:28.618Z,14.96
2024-05-09T09:17:57.162Z,15.29
2024-05-09T09:20:34.101Z,15.35
2024-05-09T09:23:04.244Z,15.39
2024-05-09T09:25:31.533Z,15.31
2024-05-09T09:27:58.826Z,15.15
2024-05-09T09:30:35.281Z,15.21
2024-05-09T09:33:05.145Z,15.28
2024-05-09T09:35:35.349Z,15.03
2024-05-09T09:38:02.918Z,15.30
2024-05-09T09:40:35.110Z,15.50
2024-05-09T09:43:05.470Z,15.52
2024-05-09T09:45:34.813Z,15.89
2024-05-09T09:48:01.820Z,15.95
2024-05-09T09:50:34.230Z,15.96
2024-05-09T09:53:04.978Z,16.06
2024-05-09T09:55:32.388Z,16.07
2024-05-09T09:57:59.247Z,16.16
2024-05-09T10:00:30.706Z,16.21
2024-05-09T10:03:00.133Z,15.83
2024-05-09T10:05:27.457Z,16.01
2024-05-09T10:07:54.589Z,16.16
2024-05-09T10:10:31.856Z,16.32
2024-05-09T10:13:00.096Z,16.15
2024-05-09T10:15:27.120Z,16.27
2024-05-09T10:17:54.155Z,16.13
2024-05-09T10:20:25.027Z,15.97
2024-05-09T10:22:55.065Z,16.18
2024-05-09T10:25:22.184Z,15.98
2024-05-09T10:27:57.093Z,16.27
2024-05-09T10:30:29.916Z,16.46
2024-05-09T10:33:02.774Z,16.42
2024-05-09T10:35:31.193Z,16.36
2024-05-09T10:38:00.875Z,16.33
2024-05-09T10:40:31.373Z,16.23
2024-05-09T10:43:04.657Z,15.99
2024-05-09T10:45:35.201Z,16.04
2024-05-09T10:48:02.447Z,16.33
2024-05-09T10:50:34.051Z,16.36
2024-05-09T10:53:02.506Z,16.33
2024-05-09T10:55:29.338Z,16.56
2024-05-09T10:57:56.310Z,16.53
2024-05-09T11:00:33.788Z,16.85
2024-05-09T11:03:03.164Z,16.73
2024-05-09T11:05:30.146Z,16.74
2024-05-09T11:07:57.034Z,16.84
2024-05-09T11:10:27.920Z,16.79
2024-05-09T11:13:00.848Z,16.93
2024-05-09T11:15:37.707Z,16.93
2024-05-09T11:18:05.335Z,17.12
2024-05-09T11:20:35.510Z,16.97
2024-05-09T11:23:04.671Z,17.04
2024-05-09T11:25:31.477Z,17.24
2024-05-09T11:27:58.813Z,17.08
2024-05-09T11:30:31.580Z,17.16
2024-05-09T11:33:02.456Z,17.40
2024-05-09T11:35:29.340Z,17.28
2024-05-09T11:37:56.173Z,17.00
2024-05-09T11:40:26.005Z,17.12
2024-05-09T11:42:59.183Z,17.34
2024-05-09T11:45:26.042Z,17.08
2024-05-09T11:47:53.263Z,16.86
2024-05-09T11:50:29.671Z,16.87
2024-05-09T11:52:59.831Z,16.62
2024-05-09T11:55:28.245Z,16.93
2024-05-09T11:57:55.827Z,16.83
2024-05-09T12:00:29.778Z,16.92
2024-05-09T12:03:03.579Z,16.85
2024-05-09T12:05:34.121Z,16.80
2024-05-09T12:08:01.460Z,16.95
2024-05-09T12:10:33.355Z,16.96
2024-05-09T12:13:03.161Z,17.21
2024-05-09T12:15:31.113Z,17.13
2024-05-09T12:18:00.221Z,17.14
2024-05-09T12:20:36.938Z,17.16
2024-05-09T12:23:06.411Z,17.26
2024-05-09T12:25:33.358Z,17.45
2024-05-09T12:28:00.718Z,17.32
2024-05-09T12:30:36.135Z,17.59
2024-05-09T12:33:07.216Z,17.33
2024-05-09T12:35:36.861Z,17.39
2024-05-09T12:38:03.967Z,17.34
2024-05-09T12:40:36.613Z,17.17
2024-05-09T12:43:07.624Z,17.44
2024-05-09T12:45:35.240Z,17.61
2024-05-09T12:48:02.247Z,17.87
2024-05-09T12:50:32.709Z,18.03
2024-05-09T12:53:04.758Z,18.04
2024-05-09T12:55:40.278Z,17.96
2024-05-09T12:58:15.146Z,17.98
2024-05-09T13:00:42.215Z,18.19
2024-05-09T13:03:09.368Z,18.41
2024-05-09T13:05:36.459Z,18.40
2024-05-09T13:08:07.013Z,18.34
2024-05-09T13:10:33.974Z,18.67
2024-05-09T13:13:01.789Z,18.89
2024-05-09T13:15:29.299Z,19.04
2024-05-09T13:17:59.447Z,18.95
2024-05-09T13:20:33.122Z,19.07
2024-05-09T13:23:02.458Z,19.31
2024-05-09T13:25:31.979Z,19.52
2024-05-09T13:27:59.012Z,19.49
2024-05-09T13:30:33.767Z,19.39
2024-05-09T13:33:06.844Z,19.41
2024-05-09T13:35:34.201Z,19.46
2024-05-09T13:38:01.230Z,19.48
2024-05-09T13:40:33.461Z,19.54
2024-05-09T13:43:05.560Z,19.79
2024-05-09T13:45:32.725Z,19.87
2024-05-09T13:47:59.989Z,19.94
2024-05-09T13:50:33.932Z,19.93
2024-05-09T13:53:03.213Z,20.20
2024-05-09T13:55:30.093Z,19.98
2024-05-09T13:57:57.017Z,19.97
2024-05-09T14:00:40.675Z,19.90
2024-05-09T14:03:12.350Z,19.95
2024-05-09T14:05:39.417Z,20.09
2024-05-09T14:08:06.874Z,19.68
2024-05-09T14:10:33.747Z,19.76
2024-05-09T14:13:01.277Z,19.98
2024-05-09T14:15:31.035Z,19.81
2024-05-09T14:17:57.923Z,19.92
2024-05-09T14:20:31.000Z,20.13
2024-05-09T14:22:59.262Z,20.07
2024-05-09T14:25:27.121Z,20.07
2024-05-09T14:27:54.150Z,19.99
2024-05-09T14:30:30.311Z,20.04
2024-05-09T14:33:06.762Z,20.27
2024-05-09T14:35:34.567Z,20.37
2024-05-09T14:38:01.454Z,20.62
2024-05-09T14:40:39.544Z,20.42
2024-05-09T14:43:10.303Z,20.40
2024-05-09T14:45:37.389Z,20.55
2024-05-09T14:48:08.249Z,20.31
2024-05-09T14:50:38.528Z,20.70
2024-05-09T14:53:07.930Z,20.98
2024-05-09T14:55:35.758Z,20.89
2024-05-09T14:58:03.777Z,21.18
2024-05-09T15:00:35.892Z,21.21
2024-05-09T15:03:06.794Z,21.22
2024-05-09T15:05:33.761Z,21.00
2024-05-09T15:08:00.630Z,21.48
2024-05-09T15:10:34.458Z,21.83
2024-05-09T15:13:03.487Z,22.01
2024-05-09T15:15:30.615Z,21.69
2024-05-09T15:17:57.640Z,22.12
2024-05-09T15:20:33.973Z,22.13
2024-05-09T15:23:04.111Z,21.62
2024-05-09T15:25:31.087Z,21.84
2024-05-09T15:27:58.160Z,22.22
2024-05-09T15:30:30.316Z,22.35
2024-05-09T15:32:59.970Z,22.72
2024-05-09T15:35:29.613Z,22.47
2024-05-09T15:37:56.443Z,22.84
2024-05-09T15:40:31.748Z,23.36
2024-05-09T15:43:05.784Z,23.30
2024-05-09T15:45:32.942Z,22.33
2024-05-09T15:48:00.128Z,22.47
2024-05-09T15:50:36.943Z,23.05
2024-05-09T15:53:07.883Z,22.90
2024-05-09T15:55:35.774Z,23.11
2024-05-09T15:58:03.429Z,23.58
2024-05-09T16:00:37.557Z,23.94
2024-05-09T16:03:08.055Z,24.55
2024-05-09T16:05:38.073Z,24.90
2024-05-09T16:08:05.978Z,25.17
2024-05-09T16:10:34.461Z,25.37
2024-05-09T16:13:02.666Z,25.58
2024-05-09T16:15:30.473Z,25.81
2024-05-09T16:17:57.587Z,25.69
2024-05-09T16:22:56.805Z,25.58
2024-05-09T16:25:23.740Z,25.80
2024-05-09T16:27:50.756Z,26.12
2024-05-09T16:30:24.827Z,26.46
2024-05-09T16:32:58.683Z,26.55
2024-05-09T16:35:25.603Z,25.82
2024-05-09T16:37:52.447Z,26.09
2024-05-09T16:40:29.941Z,26.03
2024-05-09T16:43:04.657Z,25.74
2024-05-09T16:45:31.957Z,25.11
2024-05-09T16:47:59.295Z,24.81
2024-05-09T16:50:31.554Z,24.48
2024-05-09T16:53:00.570Z,24.69
2024-05-09T16:55:30.081Z,24.34
2024-05-09T16:57:57.286Z,24.41
2024-05-09T17:00:35.261Z,24.39
2024-05-09T17:03:08.426Z,23.80
2024-05-09T17:05:36.126Z,24.02
2024-05-09T17:08:03.673Z,23.98
2024-05-09T17:10:35.036Z,23.21
2024-05-09T17:13:03.034Z,23.30
2024-05-09T17:15:30.629Z,23.43
2024-05-09T17:17:57.547Z,23.58
2024-05-09T17:20:31.828Z,23.68
2024-05-09T17:23:02.008Z,23.83
2024-05-09T17:25:28.853Z,23.90
2024-05-09T17:27:58.424Z,24.10
2024-05-09T17:30:32.352Z,24.25
2024-05-09T17:33:03.335Z,24.32
2024-05-09T17:35:30.827Z,24.47
2024-05-09T17:37:57.668Z,24.59
2024-05-09T17:40:31.525Z,24.07
2024-05-09T17:43:05.807Z,24.55
2024-05-09T17:45:33.420Z,25.14
2024-05-09T17:48:00.755Z,25.75
2024-05-09T17:50:34.381Z,26.08
2024-05-09T17:53:03.678Z,25.79
2024-05-09T17:55:30.624Z,25.22
2024-05-09T17:57:57.822Z,24.61
2024-05-09T18:00:36.748Z,23.33
2024-05-09T18:03:07.267Z,23.17
2024-05-09T18:05:34.884Z,23.06
2024-05-09T18:08:02.022Z,22.46
2024-05-09T18:10:35.489Z,22.45
2024-05-09T18:13:06.152Z,22.26
2024-05-09T18:15:36.328Z,21.69
2024-05-09T18:18:04.181Z,21.53
2024-05-09T18:20:40.689Z,21.55
2024-05-09T18:23:11.530Z,21.58
2024-05-09T18:25:38.354Z,21.53
2024-05-09T18:28:06.314Z,21.37
2024-05-09T18:30:37.299Z,21.39
2024-05-09T18:33:06.443Z,21.33
2024-05-09T18:35:34.849Z,21.25
2024-05-09T18:38:01.768Z,21.07
2024-05-09T18:40:34.060Z,21.10
2024-05-09T18:43:03.866Z,20.84
2024-05-09T18:45:31.025Z,20.71
2024-05-09T18:48:00.823Z,20.66
2024-05-09T18:50:34.388Z,20.25
2024-05-09T18:53:05.462Z,20.23
2024-05-09T18:55:32.335Z,20.10
2024-05-09T18:57:59.321Z,20.02
2024-05-09T19:00:33.620Z,19.63
2024-05-09T19:03:07.048Z,19.55
2024-05-09T19:05:35.034Z,19.28
2024-05-09T19:08:02.548Z,19.26
2024-05-09T19:10:34.232Z,19.04
2024-05-09T19:13:06.499Z,19.00
2024-05-09T19:15:37.417Z,18.90
2024-05-09T19:18:08.127Z,18.86
2024-05-09T19:20:36.872Z,18.79
2024-05-09T19:23:08.079Z,18.55
2024-05-09T19:25:36.069Z,18.66
2024-05-09T19:28:04.074Z,18.52
2024-05-09T19:30:38.773Z,18.41
2024-05-09T19:33:12.642Z,18.14
2024-05-09T19:35:41.111Z,18.08
2024-05-09T19:38:09.006Z,17.59
2024-05-09T19:40:36.746Z,17.60
2024-05-09T19:43:05.693Z,17.56
2024-05-09T19:45:35.018Z,17.57
2024-05-09T19:48:04.341Z,17.48
2024-05-09T19:50:41.148Z,17.28
2024-05-09T19:53:11.474Z,17.30
2024-05-09T19:55:38.937Z,17.24
2024-05-09T19:58:06.991Z,17.18
2024-05-09T20:00:36.682Z,17.10
2024-05-09T20:03:06.102Z,17.14
2024-05-09T20:05:39.273Z,16.96
2024-05-09T20:08:07.938Z,16.91
2024-05-09T20:10:36.576Z,16.88
2024-05-09T20:13:08.009Z,16.71
2024-05-09T20:15:35.806Z,16.74
2024-05-09T20:18:06.962Z,16.62
2024-05-09T20:20:41.668Z,16.77
2024-05-09T20:23:11.302Z,16.53
2024-05-09T20:25:38.744Z,16.65
2024-05-09T20:28:06.856Z,16.69
2024-05-09T20:30:34.894Z,16.72
2024-05-09T20:33:03.948Z,16.69
2024-05-09T20:35:32.144Z,16.66
2024-05-09T20:38:03.316Z,16.56
2024-05-09T20:40:35.806Z,16.56
2024-05-09T20:43:06.030Z,16.52
2024-05-09T20:45:33.660Z,16.52
2024-05-09T20:48:01.203Z,16.40
2024-05-09T20:50:36.401Z,16.43
2024-05-09T20:53:10.183Z,16.33
2024-05-09T20:55:37.112Z,16.21
2024-05-09T20:58:04.397Z,16.13
2024-05-09T21:00:38.985Z,16.13
2024-05-09T21:03:09.849Z,16.03
2024-05-09T21:05:37.020Z,15.87
2024-05-09T21:08:04.727Z,15.84
2024-05-09T21:10:34.811Z,15.80
2024-05-09T21:13:03.202Z,15.82
2024-05-09T21:15:30.864Z,15.52
2024-05-09T21:17:57.909Z,15.47
2024-05-09T21:20:30.885Z,15.39
2024-05-09T21:22:59.325Z,15.26
2024-05-09T21:25:26.325Z,15.11
2024-05-09T21:27:56.004Z,14.92
2024-05-09T21:30:32.407Z,14.91
2024-05-09T21:33:07.828Z,14.87
2024-05-09T21:35:34.953Z,14.92
2024-05-09T21:38:01.829Z,15.04
2024-05-09T21:40:34.268Z,15.15
2024-05-09T21:43:06.632Z,15.23
2024-05-09T21:45:33.770Z,15.08
2024-05-09T21:48:02.378Z,14.83
2024-05-09T21:50:36.873Z,14.96
2024-05-09T21:53:07.702Z,14.98
2024-05-09T21:55:34.713Z,14.87
2024-05-09T21:58:02.470Z,14.74
2024-05-09T22:00:36.879Z,14.82
2024-05-09T22:03:06.332Z,14.85
2024-05-09T22:05:33.611Z,14.87
2024-05-09T22:08:00.819Z,14.79
2024-05-09T22:10:33.730Z,14.46
2024-05-09T22:13:02.964Z,14.70
2024-05-09T22:15:33.800Z,14.84
2024-05-09T22:18:00.968Z,14.90
2024-05-09T22:20:34.525Z,14.88
2024-05-09T22:23:05.340Z,14.74
2024-05-09T22:25:33.050Z,14.90
2024-05-09T22:28:01.116Z,14.91
2024-05-09T22:30:35.647Z,15.04
2024-05-09T22:33:10.146Z,15.07
2024-05-09T22:35:38.606Z,14.80
2024-05-09T22:38:05.856Z,14.82
2024-05-09T22:40:42.479Z,14.71
2024-05-09T22:43:17.006Z,14.81
2024-05-09T22:45:44.380Z,14.79
2024-05-09T22:48:15.636Z,14.86
2024-05-09T22:50:43.205Z,14.80
2024-05-09T22:53:10.029Z,14.81
2024-05-09T22:55:36.912Z,14.81
2024-05-09T22:58:04.057Z,14.88
2024-05-09T23:00:32.664Z,14.83
2024-05-09T23:03:00.328Z,14.83
2024-05-09T23:05:30.454Z,14.89
2024-05-09T23:07:57.495Z,14.88
2024-05-09T23:10:31.553Z,14.85
2024-05-09T23:13:03.020Z,14.87
2024-05-09T23:15:30.153Z,14.72
2024-05-09T23:17:57.308Z,14.51
2024-05-09T23:22:56.965Z,14.42
2024-05-09T23:25:24.033Z,14.14
2024-05-09T23:27:50.908Z,14.47
2024-05-09T23:30:28.414Z,14.15
2024-05-09T23:33:01.493Z,14.07
2024-05-09T23:35:28.463Z,14.32
2024-05-09T23:37:57.922Z,14.40
2024-05-09T23:40:36.342Z,14.28
2024-05-09T23:43:06.529Z,14.42
2024-05-09T23:45:33.559Z,14.53
2024-05-09T23:48:00.814Z,14.60
2024-05-09T23:50:34.375Z,14.63
2024-05-09T23:53:08.531Z,14.69
2024-05-09T23:55:36.482Z,14.72
2024-05-09T23:58:03.578Z,14.65
